createdAt,value
2019-03-19T00:05:49.545Z,81.6
2019-03-19T00:06:49.411Z,82.1
2019-03-19T00:07:49.311Z,82.5
2019-03-19T00:08:49.242Z,82.7
2019-03-19T00:09:49.147Z,83
2019-03-19T00:10:49.265Z,83.1
2019-03-19T00:11:49.169Z,83
2019-03-19T00:12:49.073Z,83.3
2019-03-19T00:13:48.994Z,83.7
2019-03-19T00:14:48.893Z,83.7
2019-03-19T00:15:49.205Z,84
2019-03-19T00:16:49.087Z,84.1
2019-03-19T00:17:48.982Z,83.8
2019-03-19T00:18:48.868Z,83.8
2019-03-19T00:19:48.826Z,84.1
2019-03-19T00:20:48.739Z,84
2019-03-19T00:21:48.643Z,84.4
2019-03-19T00:22:48.571Z,84.3
2019-03-19T00:23:48.491Z,84.1
2019-03-19T00:24:48.443Z,84.7
2019-03-19T00:26:00.575Z,84.9
2019-03-19T00:27:00.471Z,84.9
2019-03-19T00:28:00.367Z,85
2019-03-19T00:29:00.271Z,85
2019-03-19T00:30:00.363Z,85.1
2019-03-19T00:31:00.263Z,84.9
2019-03-19T00:32:00.164Z,84.7
2019-03-19T00:33:00.041Z,84.7
2019-03-19T00:33:59.931Z,85.1
2019-03-19T00:34:59.899Z,85.2
2019-03-19T00:36:00.497Z,85.1
2019-03-19T00:37:00.374Z,85.3
2019-03-19T00:38:00.269Z,85.4
2019-03-19T00:39:00.163Z,85.4
2019-03-19T00:40:00.099Z,85.2
2019-03-19T00:41:00.168Z,85.3
2019-03-19T00:42:00.070Z,85.2
2019-03-19T00:42:59.963Z,85.2
2019-03-19T00:43:59.911Z,85.3
2019-03-19T00:44:59.844Z,85.2
2019-03-19T00:46:00.377Z,85.3
2019-03-19T00:47:00.283Z,85.5
2019-03-19T00:48:00.167Z,85.7
2019-03-19T00:49:00.061Z,85.7
2019-03-19T00:49:59.978Z,85.7
2019-03-19T00:51:00.115Z,85.4
2019-03-19T00:52:00.009Z,85.3
2019-03-19T00:52:59.889Z,85.3
2019-03-19T00:53:59.777Z,85.6
2019-03-19T00:54:59.663Z,86
2019-03-19T00:56:11.101Z,86.3
2019-03-19T00:57:10.986Z,85.3
2019-03-19T01:06:09.331Z,83.1
2019-03-19T01:07:09.215Z,84.1
2019-03-19T01:08:09.113Z,83.6
2019-03-19T01:09:08.989Z,83.9
2019-03-19T01:10:08.899Z,84.1
2019-03-19T01:11:08.783Z,84
2019-03-19T01:12:08.939Z,84.4
2019-03-19T01:13:08.869Z,83.6
2019-03-19T01:14:08.808Z,83.8
2019-03-19T01:15:08.688Z,83.7
2019-03-19T01:16:08.999Z,84
2019-03-19T01:17:08.918Z,84.2
2019-03-19T01:18:08.823Z,84.7
2019-03-19T01:19:08.708Z,84.6
2019-03-19T01:20:08.596Z,84.6
2019-03-19T01:21:08.476Z,84.7
2019-03-19T01:22:08.384Z,84.6
2019-03-19T01:23:08.271Z,85
2019-03-19T01:24:08.183Z,84.9
2019-03-19T01:25:08.080Z,85.3
2019-03-19T01:26:24.464Z,85.2
2019-03-19T01:27:24.416Z,85.2
2019-03-19T01:28:24.303Z,85.3
2019-03-19T01:29:24.209Z,85.2
2019-03-19T01:30:24.105Z,85.4
2019-03-19T01:31:23.988Z,85.6
2019-03-19T01:32:23.868Z,85.4
2019-03-19T01:33:23.761Z,85.8
2019-03-19T01:34:23.655Z,85.8
2019-03-19T01:35:23.574Z,85.8
2019-03-19T01:36:23.896Z,86
2019-03-19T01:37:23.793Z,85.6
2019-03-19T02:06:17.620Z,80.8
2019-03-19T02:07:17.504Z,81.8
2019-03-19T02:08:17.399Z,82.1
2019-03-19T02:09:17.269Z,82.5
2019-03-19T02:10:17.230Z,82.9
2019-03-19T02:11:17.364Z,82.8
2019-03-19T02:12:17.277Z,82.8
2019-03-19T02:13:17.180Z,82.9
2019-03-19T02:14:17.096Z,83.2
2019-03-19T02:15:17.092Z,83.7
2019-03-19T02:16:17.466Z,84
2019-03-19T02:17:17.354Z,84.4
2019-03-19T02:18:17.243Z,84.9
2019-03-19T02:19:17.150Z,85
2019-03-19T02:20:17.055Z,84.7
2019-03-19T02:21:16.982Z,85.9
2019-03-19T02:22:16.879Z,85
2019-03-19T02:23:16.786Z,85.2
2019-03-19T02:24:16.690Z,85.5
2019-03-19T02:25:16.587Z,85.8
2019-03-19T02:26:17.838Z,85.8
2019-03-19T02:27:17.724Z,85.6
2019-03-19T02:28:17.614Z,85.8
2019-03-19T02:29:17.730Z,85.9
2019-03-19T02:30:17.758Z,86
2019-03-19T02:31:17.782Z,86
2019-03-19T02:32:17.722Z,86.2
2019-03-19T02:33:17.695Z,86.1
2019-03-19T02:34:17.649Z,86.3
2019-03-19T02:35:17.558Z,86.6
2019-03-19T02:36:18.083Z,86.2
2019-03-19T02:37:18.031Z,86.5
2019-03-19T02:46:16.824Z,82.6
2019-03-19T02:47:16.751Z,83.4
2019-03-19T02:48:16.683Z,83.5
2019-03-19T02:49:16.655Z,83.7
2019-03-19T02:50:16.579Z,84
2019-03-19T02:51:16.524Z,84.2
2019-03-19T02:52:16.546Z,84
2019-03-19T02:53:16.456Z,84.2
2019-03-19T02:54:16.396Z,84.7
2019-03-19T02:55:16.364Z,85.2
2019-03-19T02:56:34.111Z,85.2
2019-03-19T02:57:34.022Z,85.4
2019-03-19T03:06:32.437Z,82.8
2019-03-19T03:07:32.380Z,83.6
2019-03-19T03:08:32.298Z,83.9
2019-03-19T03:09:32.232Z,84.1
2019-03-19T03:10:32.138Z,84.3
2019-03-19T03:11:32.135Z,84.3
2019-03-19T03:12:32.063Z,84.4
2019-03-19T03:13:32.047Z,84.7
2019-03-19T03:14:31.957Z,85
2019-03-19T03:15:31.861Z,85.6
2019-03-19T03:16:32.236Z,85.3
2019-03-19T03:17:32.148Z,85.2
2019-03-19T03:18:32.083Z,84.9
2019-03-19T03:26:49.401Z,83
2019-03-19T03:27:49.592Z,84.3
2019-03-19T03:28:49.536Z,84.6
2019-03-19T03:29:49.503Z,84.6
2019-03-19T03:30:49.538Z,84.5
2019-03-19T03:31:49.534Z,84.6
2019-03-19T03:32:49.555Z,85.2
2019-03-19T03:33:49.537Z,85.5
2019-03-19T03:34:49.503Z,85.8
2019-03-19T03:35:49.474Z,85.3
2019-03-19T03:36:49.852Z,85.5
2019-03-19T03:37:49.788Z,85.6
2019-03-19T03:38:49.781Z,85.9
2019-03-19T03:39:49.695Z,86.1
2019-03-19T03:40:49.619Z,86.3
2019-03-19T03:41:49.531Z,87
2019-03-19T03:42:49.459Z,87.3
2019-03-19T03:43:49.373Z,87.3
2019-03-19T03:44:49.309Z,87.2
2019-03-19T03:45:49.254Z,87.1
2019-03-19T03:46:49.592Z,87.5
2019-03-19T03:47:49.552Z,87.2
2019-03-19T03:57:03.407Z,84.6
2019-03-19T03:58:03.348Z,84.7
2019-03-19T03:59:03.266Z,85.2
2019-03-19T04:00:03.175Z,85.5
2019-03-19T04:01:03.135Z,85.6
2019-03-19T04:02:03.046Z,85.3
2019-03-19T04:03:02.946Z,85.8
2019-03-19T04:04:02.851Z,86.1
2019-03-19T04:05:02.807Z,86.2
2019-03-19T04:06:02.722Z,86.6
2019-03-19T04:07:03.060Z,87.1
2019-03-19T04:08:02.976Z,86.9
2019-03-19T04:09:02.895Z,87
2019-03-19T04:10:02.810Z,87.5
2019-03-19T04:11:02.733Z,87.3
2019-03-19T04:12:02.677Z,87.6
2019-03-19T04:13:02.594Z,87.2
2019-03-19T04:14:02.533Z,87.5
2019-03-19T04:15:02.531Z,87.5
2019-03-19T04:16:02.470Z,87.8
2019-03-19T04:17:02.850Z,88
2019-03-19T04:18:02.790Z,87.4
2019-03-19T04:19:02.710Z,86.9
2019-03-19T04:37:18.158Z,84.7
2019-03-19T04:38:18.057Z,85.2
2019-03-19T04:39:17.978Z,85.8
2019-03-19T04:40:17.876Z,86.1
2019-03-19T04:41:17.781Z,86.1
2019-03-19T04:42:17.683Z,86
2019-03-19T04:43:17.579Z,86.6
2019-03-19T04:44:17.490Z,86.7
2019-03-19T04:45:17.469Z,86.8
2019-03-19T04:46:17.361Z,87.5
2019-03-19T04:47:17.661Z,87.4
2019-03-19T04:48:17.543Z,87.4
2019-03-19T04:57:27.777Z,84.5
2019-03-19T04:58:27.659Z,85.3
2019-03-19T04:59:27.545Z,85.8
2019-03-19T05:00:27.488Z,86.2
2019-03-19T05:01:27.377Z,86.6
2019-03-19T05:02:27.271Z,86.9
2019-03-19T05:03:27.165Z,87.4
2019-03-19T05:04:27.109Z,87.4
2019-03-19T05:05:27.007Z,87.6
2019-03-19T05:06:26.911Z,87.8
2019-03-19T05:07:27.231Z,87.9
2019-03-19T05:08:27.124Z,87.7
2019-03-19T05:09:27.003Z,88.2
2019-03-19T05:10:26.913Z,88.3
2019-03-19T05:11:26.815Z,88.2
2019-03-19T05:12:26.704Z,88.5
2019-03-19T05:13:26.585Z,88.3
2019-03-19T05:14:26.509Z,88.3
2019-03-19T05:15:26.483Z,88.6
2019-03-19T05:16:26.379Z,88.3
2019-03-19T05:17:26.683Z,88.6
2019-03-19T05:18:26.631Z,88.7
2019-03-19T05:19:26.533Z,89.7
2019-03-19T05:20:26.452Z,88.9
2019-03-19T05:21:26.377Z,88.9
2019-03-19T05:22:26.303Z,89
2019-03-19T05:23:26.179Z,89.3
2019-03-19T05:24:26.065Z,89.4
2019-03-19T05:25:25.968Z,89.7
2019-03-19T05:26:25.848Z,89.8
2019-03-19T05:27:37.875Z,90
2019-03-19T05:28:37.922Z,90.4
2019-03-19T05:29:37.833Z,90.2
2019-03-19T05:30:37.737Z,90.2
2019-03-19T05:31:37.629Z,90.2
2019-03-19T05:32:37.541Z,90.2
2019-03-19T05:33:37.473Z,90.2
2019-03-19T05:34:37.372Z,90.3
2019-03-19T05:35:37.287Z,90.2
2019-03-19T05:36:37.177Z,90.2
2019-03-19T05:37:37.527Z,90.3
2019-03-19T05:38:37.495Z,89.7
2019-03-19T05:47:41.155Z,87.2
2019-03-19T05:48:41.047Z,88.2
2019-03-19T05:49:40.920Z,88
2019-03-19T05:50:40.809Z,87.8
2019-03-19T05:51:40.713Z,88.3
2019-03-19T05:52:40.615Z,88.4
2019-03-19T05:53:40.533Z,89.5
2019-03-19T05:54:40.444Z,88.6
2019-03-19T05:55:40.355Z,88.7
2019-03-19T05:56:40.267Z,88.9
2019-03-19T05:57:51.080Z,89.1
2019-03-19T05:58:50.991Z,89.1
2019-03-19T05:59:50.904Z,89.3
2019-03-19T06:00:50.795Z,89.6
2019-03-19T06:01:50.673Z,89.7
2019-03-19T06:02:50.569Z,90
2019-03-19T06:03:50.458Z,89.8
2019-03-19T06:04:50.386Z,90.4
2019-03-19T06:05:50.312Z,90.1
2019-03-19T06:06:50.203Z,90.1
2019-03-19T06:07:50.569Z,90.1
2019-03-19T06:08:50.522Z,90.2
2019-03-19T06:09:50.479Z,90.1
2019-03-19T06:10:50.367Z,90.2
2019-03-19T06:11:50.266Z,90.1
2019-03-19T06:12:50.249Z,90.2
2019-03-19T06:13:50.168Z,90.1
2019-03-19T06:14:50.060Z,90.2
2019-03-19T06:15:49.978Z,90.2
2019-03-19T06:16:49.916Z,90.3
2019-03-19T06:17:52.678Z,90.3
2019-03-19T06:18:52.581Z,90.3
2019-03-19T06:19:52.490Z,90.3
2019-03-19T06:20:52.415Z,90.2
2019-03-19T06:21:52.348Z,90.2
2019-03-19T06:22:52.231Z,90.2
2019-03-19T06:23:52.114Z,90.3
2019-03-19T06:24:52.002Z,90.4
2019-03-19T06:25:51.906Z,90.5
2019-03-19T06:26:51.820Z,90.3
2019-03-19T06:28:01.507Z,90.1
2019-03-19T06:29:01.488Z,90.2
2019-03-19T06:30:01.393Z,90
2019-03-19T06:31:01.358Z,89.9
2019-03-19T06:32:01.264Z,89.8
2019-03-19T06:33:01.173Z,89.9
2019-03-19T06:34:01.155Z,89.8
2019-03-19T06:35:01.032Z,89.4
2019-03-19T06:36:00.907Z,89.8
2019-03-19T06:37:00.815Z,89.2
2019-03-19T06:38:01.137Z,89.3
2019-03-19T06:39:01.055Z,89.2
2019-03-19T06:40:00.953Z,89
2019-03-19T06:41:00.869Z,89.1
2019-03-19T06:42:00.874Z,89
2019-03-19T06:43:00.803Z,89.2
2019-03-19T06:44:00.698Z,89.3
2019-03-19T06:45:00.746Z,89.1
2019-03-19T06:46:00.649Z,89.1
2019-03-19T06:47:00.550Z,89.2
2019-03-19T06:48:00.882Z,89.3
2019-03-19T06:49:00.772Z,88.7
2019-03-19T07:08:09.912Z,84.2
2019-03-19T07:09:09.888Z,85
2019-03-19T07:10:09.792Z,85.4
2019-03-19T07:11:09.676Z,85.7
2019-03-19T07:12:09.582Z,85.6
2019-03-19T07:13:09.548Z,85.6
2019-03-19T07:14:09.464Z,85.7
2019-03-19T07:15:09.356Z,85.6
2019-03-19T07:16:09.270Z,86.1
2019-03-19T07:17:09.187Z,86.3
2019-03-19T07:18:09.534Z,86.8
2019-03-19T07:19:09.436Z,86.7
2019-03-19T07:20:09.318Z,86.8
2019-03-19T07:21:09.201Z,86.7
2019-03-19T07:22:09.096Z,86.7
2019-03-19T07:23:08.991Z,86.4
2019-03-19T07:24:08.941Z,86.3
2019-03-19T07:25:08.854Z,86.7
2019-03-19T07:26:08.758Z,86.9
2019-03-19T07:27:08.658Z,87.1
2019-03-19T07:28:08.989Z,86.9
2019-03-19T07:29:08.876Z,87.1
2019-03-19T07:30:08.776Z,87.2
2019-03-19T07:31:08.686Z,88.1
2019-03-19T07:32:08.610Z,87.4
2019-03-19T07:33:08.581Z,87.1
2019-03-19T07:34:08.470Z,87.1
2019-03-19T07:35:08.388Z,87.3
2019-03-19T07:36:08.299Z,87
2019-03-19T07:37:08.191Z,86.8
2019-03-19T07:38:08.575Z,86.7
2019-03-19T07:39:08.466Z,87.1
2019-03-19T07:40:08.409Z,87.1
2019-03-19T07:41:08.355Z,87.2
2019-03-19T07:42:08.257Z,87.2
2019-03-19T07:43:08.158Z,87.2
2019-03-19T07:44:08.051Z,86.5
2019-03-19T07:45:07.932Z,86.4
2019-03-19T07:46:07.870Z,86.1
2019-03-19T07:47:07.766Z,86.2
2019-03-19T07:48:08.081Z,86.3
2019-03-19T07:49:08.008Z,86
2019-03-19T07:50:07.909Z,86.6
2019-03-19T07:51:07.818Z,87.3
2019-03-19T07:52:07.739Z,86.2
2019-03-19T07:53:07.650Z,86.4
2019-03-19T07:54:07.551Z,86.5
2019-03-19T07:55:07.456Z,86.4
2019-03-19T07:56:07.348Z,86.6
2019-03-19T07:57:07.310Z,86.7
2019-03-19T07:58:07.650Z,86.3
2019-03-19T07:59:07.542Z,85.8
2019-03-19T08:00:07.461Z,85.8
2019-03-19T08:01:07.356Z,85.6
2019-03-19T08:02:07.256Z,85.6
2019-03-19T08:03:17.095Z,86.2
2019-03-19T08:04:16.979Z,85
2019-03-19T08:05:16.898Z,84.7
2019-03-19T08:06:16.811Z,85
2019-03-19T08:07:16.770Z,84.5
2019-03-19T08:08:17.250Z,84.2
2019-03-19T08:09:17.151Z,83
2019-03-19T08:11:17.471Z,82.1
2019-03-19T08:17:28.039Z,78.7
2019-03-19T08:18:28.362Z,78.7
2019-03-19T08:19:28.238Z,79.4
2019-03-19T08:20:28.142Z,79.9
2019-03-19T08:21:28.050Z,80
2019-03-19T08:22:28.003Z,80.1
2019-03-19T08:23:27.919Z,80
2019-03-19T08:24:27.839Z,80.2
2019-03-19T08:25:27.734Z,80.6
2019-03-19T08:26:27.642Z,81
2019-03-19T08:27:27.540Z,81.4
2019-03-19T08:28:27.866Z,82.2
2019-03-19T08:29:27.770Z,83
2019-03-19T08:30:27.654Z,83.7
2019-03-19T08:31:27.554Z,83.9
2019-03-19T08:32:27.427Z,84.1
2019-03-19T08:33:27.316Z,84.2
2019-03-19T08:34:27.247Z,84.4
2019-03-19T08:35:27.199Z,84.7
2019-03-19T08:36:27.083Z,85.4
2019-03-19T08:37:26.979Z,85.3
2019-03-19T08:38:27.309Z,85.7
2019-03-19T08:39:27.251Z,86
2019-03-19T08:40:27.181Z,86.2
2019-03-19T08:41:27.100Z,86.1
2019-03-19T08:42:27.007Z,86.6
2019-03-19T08:43:26.887Z,87
2019-03-19T08:44:28.705Z,87
2019-03-19T08:45:28.613Z,87
2019-03-19T08:46:28.509Z,87.3
2019-03-19T08:47:28.403Z,87.8
2019-03-19T08:48:28.807Z,89.1
2019-03-19T08:49:28.719Z,88.4
2019-03-19T08:50:28.671Z,88.4
2019-03-19T08:51:28.581Z,88.8
2019-03-19T08:52:28.531Z,88.4
2019-03-19T08:53:28.448Z,88.6
2019-03-19T08:54:28.371Z,88.8
2019-03-19T08:55:28.269Z,88.7
2019-03-19T08:56:28.161Z,88.4
2019-03-19T08:57:28.063Z,88.2
2019-03-19T08:58:28.383Z,88.4
2019-03-19T08:59:28.257Z,89.3
2019-03-19T09:00:28.190Z,88.3
2019-03-19T09:01:28.103Z,87.3
2019-03-19T09:02:28.017Z,86
2019-03-19T09:04:27.631Z,85.4
2019-03-19T09:08:27.158Z,84.7
2019-03-19T09:09:27.051Z,84.9
2019-03-19T09:10:26.972Z,84.9
2019-03-19T09:11:26.887Z,85.1
2019-03-19T09:12:26.785Z,85.1
2019-03-19T09:13:26.765Z,85.9
2019-03-19T09:14:26.660Z,86
2019-03-19T09:15:26.582Z,84.7
2019-03-19T09:16:26.578Z,83.4
2019-03-19T09:17:26.476Z,83.4
2019-03-19T09:18:26.803Z,83.1
2019-03-19T09:19:26.695Z,83.3
2019-03-19T09:20:26.617Z,83.9
2019-03-19T09:21:26.591Z,84.5
2019-03-19T09:22:30.517Z,85
2019-03-19T09:23:30.417Z,85.1
2019-03-19T09:24:30.329Z,85.2
2019-03-19T09:25:30.247Z,84.5
2019-03-19T09:26:30.135Z,84.5
2019-03-19T09:27:30.074Z,84.6
2019-03-19T09:28:30.447Z,84.7
2019-03-19T09:29:30.367Z,84.1
2019-03-19T09:30:30.247Z,84.6
2019-03-19T09:38:29.380Z,81
2019-03-19T09:39:29.305Z,80.5
2019-03-19T09:40:29.194Z,79.6
2019-03-19T09:41:29.076Z,80.4
2019-03-19T09:42:28.966Z,79.5
2019-03-19T09:43:29.105Z,80.2
2019-03-19T09:44:28.993Z,79.4
2019-03-19T09:45:28.927Z,79.7
2019-03-19T09:46:28.819Z,79.6
2019-03-19T09:47:28.761Z,82.2
2019-03-19T09:48:29.116Z,80.9
2019-03-19T09:49:28.992Z,81.4
2019-03-19T09:50:28.864Z,81.6
2019-03-19T09:51:28.762Z,80.6
2019-03-19T09:52:28.650Z,81.4
2019-03-19T09:53:28.609Z,78.1
2019-03-19T09:54:28.546Z,77.8
2019-03-19T09:55:28.445Z,78.7
2019-03-19T09:56:28.362Z,75
2019-03-19T09:57:28.264Z,75.2
2019-03-19T09:58:28.651Z,76.3
2019-03-19T09:59:28.582Z,75.9
2019-03-19T10:00:28.558Z,76.7
2019-03-19T10:01:28.477Z,75.1
2019-03-19T10:02:28.388Z,78.4
2019-03-19T10:03:28.310Z,78.7
2019-03-19T10:04:28.212Z,76.9
2019-03-19T10:05:28.086Z,75.8
2019-03-19T10:06:28.012Z,76.2
2019-03-19T10:07:27.900Z,76.3
2019-03-19T10:08:28.209Z,72
2019-03-19T10:09:28.142Z,71.5
2019-03-19T10:10:28.149Z,73.2
2019-03-19T10:11:28.196Z,74.5
2019-03-19T10:12:28.078Z,73.2
2019-03-19T10:13:27.986Z,75.2
2019-03-19T10:14:27.884Z,73.2
2019-03-19T10:15:27.792Z,73.7
2019-03-19T10:16:27.674Z,75.6
2019-03-19T10:17:27.572Z,74.5
2019-03-19T10:18:27.994Z,72.5
2019-03-19T10:19:27.886Z,74.1
2019-03-19T10:20:27.798Z,75.3
2019-03-19T10:21:27.709Z,74.9
2019-03-19T10:22:27.620Z,74.9
2019-03-19T10:23:27.528Z,75.4
2019-03-19T10:24:27.444Z,75.7
2019-03-19T10:25:27.342Z,75.6
2019-03-19T10:26:27.306Z,76.1
2019-03-19T10:27:27.182Z,76.3
2019-03-19T10:28:27.539Z,76.6
2019-03-19T10:29:39.274Z,76.6
2019-03-19T10:30:39.194Z,76.3
2019-03-19T10:31:39.084Z,76.5
2019-03-19T10:32:38.973Z,75.6
2019-03-19T10:33:38.934Z,74.9
2019-03-19T10:34:38.825Z,74.8
2019-03-19T10:35:38.750Z,75.1
2019-03-19T10:36:38.677Z,75.8
2019-03-19T10:37:38.587Z,76
2019-03-19T10:38:39.104Z,76.7
2019-03-19T10:39:38.997Z,76.6
2019-03-19T10:40:38.972Z,77
2019-03-19T10:41:38.955Z,76.9
2019-03-19T10:42:38.871Z,76.6
2019-03-19T10:43:38.780Z,75.8
2019-03-19T10:44:38.680Z,75.7
2019-03-19T10:45:38.592Z,76.3
2019-03-19T10:46:38.538Z,75.3
2019-03-19T10:47:38.436Z,75.5
2019-03-19T10:48:38.794Z,75.6
2019-03-19T10:49:38.683Z,75.7
2019-03-19T10:50:38.573Z,76.3
2019-03-19T10:51:38.457Z,74.2
2019-03-19T10:52:38.364Z,74.2
2019-03-19T10:53:38.293Z,75
2019-03-19T10:54:38.216Z,74.5
2019-03-19T10:55:38.092Z,75.3
2019-03-19T10:56:39.669Z,76
2019-03-19T10:57:39.636Z,75.9
2019-03-19T10:58:41.488Z,76.2
2019-03-19T10:59:49.999Z,74
2019-03-19T11:00:49.898Z,75.9
2019-03-19T11:01:52.150Z,75.5
2019-03-19T11:02:52.081Z,75.7
2019-03-19T11:03:52.000Z,75.3
2019-03-19T11:04:51.904Z,75.2
2019-03-19T11:05:51.803Z,74.2
2019-03-19T11:06:51.700Z,74.2
2019-03-19T11:07:51.636Z,75.2
2019-03-19T11:08:51.946Z,75.4
2019-03-19T11:09:51.840Z,75.5
2019-03-19T11:10:51.735Z,74.9
2019-03-19T11:11:51.660Z,74.6
2019-03-19T11:12:51.610Z,74.6
2019-03-19T11:13:51.510Z,75.1
2019-03-19T11:14:51.394Z,75.4
2019-03-19T11:15:51.319Z,75
2019-03-19T11:16:51.204Z,73.9
2019-03-19T11:17:51.103Z,73.6
2019-03-19T11:18:51.482Z,74.3
2019-03-19T11:19:51.456Z,74.1
2019-03-19T11:20:51.350Z,74.3
2019-03-19T11:21:51.260Z,73.8
2019-03-19T11:22:51.180Z,73.1
2019-03-19T11:23:51.096Z,72.6
2019-03-19T11:25:55.352Z,70.7
2019-03-19T11:28:55.170Z,71.4
2019-03-19T11:30:00.933Z,71.9
2019-03-19T11:31:00.839Z,72.1
2019-03-19T11:32:00.751Z,70.9
2019-03-19T11:33:00.660Z,70.9
2019-03-19T11:34:00.623Z,72.1
2019-03-19T11:35:00.619Z,71
2019-03-19T11:36:00.518Z,70.8
2019-03-19T11:37:00.407Z,70.7
2019-03-19T11:38:00.305Z,71.1
2019-03-19T11:39:00.625Z,70
2019-03-19T11:40:00.768Z,69.6
2019-03-19T11:41:00.650Z,69
2019-03-19T11:42:00.551Z,68.3
2019-03-19T11:43:00.510Z,67.1
2019-03-19T11:44:00.409Z,67.9
2019-03-19T11:45:00.277Z,67.6
2019-03-19T11:46:00.194Z,67.6
2019-03-19T11:47:00.096Z,66.7
2019-03-19T11:47:59.995Z,65.4
2019-03-19T11:49:00.326Z,66.4
2019-03-19T11:50:00.483Z,66.1
2019-03-19T11:51:00.432Z,65.2
2019-03-19T11:52:00.332Z,66.1
2019-03-19T11:53:00.214Z,66.1
2019-03-19T11:54:00.112Z,66.7
2019-03-19T11:54:59.988Z,67.1
2019-03-19T11:56:00.073Z,67.1
2019-03-19T11:56:59.960Z,67.6
2019-03-19T11:57:59.871Z,66.4
2019-03-19T11:59:00.210Z,67.3
2019-03-19T12:00:12.246Z,68.6
2019-03-19T12:01:12.178Z,68
2019-03-19T12:02:12.068Z,67.6
2019-03-19T12:03:17.252Z,68.1
2019-03-19T12:04:17.161Z,69.3
2019-03-19T12:05:17.055Z,70.9
2019-03-19T12:06:16.964Z,71.4
2019-03-19T12:07:17.371Z,69.9
2019-03-19T12:08:17.270Z,72.2
2019-03-19T12:09:17.607Z,72.5
2019-03-19T12:10:17.539Z,70.9
2019-03-19T12:11:17.457Z,70.3
2019-03-19T12:12:17.422Z,70.8
2019-03-19T12:13:17.301Z,70.5
2019-03-19T12:14:17.197Z,71
2019-03-19T12:15:17.084Z,70
2019-03-19T12:16:16.986Z,70.1
2019-03-19T12:17:16.920Z,69.8
2019-03-19T12:18:16.825Z,69.1
2019-03-19T12:19:17.165Z,68.2
2019-03-19T12:20:17.071Z,69.2
2019-03-19T12:21:16.985Z,67.7
2019-03-19T12:22:16.875Z,68.1
2019-03-19T12:23:16.826Z,67.7
2019-03-19T12:24:16.735Z,67.4
2019-03-19T12:25:16.638Z,67.6
2019-03-19T12:26:16.539Z,66.5
2019-03-19T12:27:16.461Z,67.3
2019-03-19T12:28:16.375Z,64.7
2019-03-19T12:29:17.109Z,65.2
2019-03-19T12:30:26.819Z,64.4
2019-03-19T12:31:26.698Z,65.3
2019-03-19T12:32:26.657Z,64.8
2019-03-19T12:33:26.549Z,65.5
2019-03-19T12:34:26.441Z,65.9
2019-03-19T12:35:26.351Z,66.7
2019-03-19T12:36:26.247Z,66.3
2019-03-19T12:37:26.269Z,64.5
2019-03-19T12:38:26.173Z,63.1
2019-03-19T12:39:26.481Z,62.4
2019-03-19T12:40:38.178Z,63.2
2019-03-19T12:41:38.077Z,62.1
2019-03-19T12:42:38.045Z,62.9
2019-03-19T12:44:37.703Z,62.9
2019-03-19T12:45:37.605Z,62
2019-03-19T12:46:37.516Z,61
2019-03-19T12:48:37.207Z,59.4
2019-03-19T12:49:37.557Z,59.9
2019-03-19T12:50:37.467Z,60.5
2019-03-19T12:51:37.367Z,60.4
2019-03-19T12:52:37.295Z,60.9
2019-03-19T12:53:37.245Z,62.2
2019-03-19T12:54:38.643Z,61.8
2019-03-19T12:55:38.531Z,60.2
2019-03-19T12:56:38.442Z,60.3
2019-03-19T12:57:38.345Z,61.4
2019-03-19T12:58:38.252Z,62.8
2019-03-19T12:59:50.627Z,60.9
2019-03-19T13:00:50.558Z,61.2
2019-03-19T13:01:50.443Z,60.8
2019-03-19T13:02:50.356Z,60.9
2019-03-19T13:03:50.297Z,60.4
2019-03-19T13:04:50.195Z,60.6
2019-03-19T13:05:50.108Z,61.2
2019-03-19T13:06:50.005Z,61
2019-03-19T13:07:49.995Z,60.7
2019-03-19T13:08:49.889Z,61.5
2019-03-19T13:09:50.275Z,63.1
2019-03-19T13:10:50.151Z,60.4
2019-03-19T13:11:50.075Z,58.8
2019-03-19T13:12:50.004Z,58.3
2019-03-19T13:13:49.881Z,58.9
2019-03-19T13:14:49.815Z,59.5
2019-03-19T13:15:49.717Z,59.4
2019-03-19T13:16:49.655Z,57.9
2019-03-19T13:17:49.558Z,57.4
2019-03-19T13:18:49.475Z,58.8
2019-03-19T13:19:49.887Z,59.4
2019-03-19T13:20:49.809Z,58.6
2019-03-19T13:21:49.725Z,57.9
2019-03-19T13:22:49.610Z,57.9
2019-03-19T13:23:49.557Z,58.6
2019-03-19T13:24:49.504Z,59.7
2019-03-19T13:25:49.429Z,59.8
2019-03-19T13:26:49.329Z,60.7
2019-03-19T13:27:49.231Z,59.8
2019-03-19T13:28:49.133Z,58.8
2019-03-19T13:29:49.497Z,59.1
2019-03-19T13:30:49.392Z,59.3
2019-03-19T13:31:49.310Z,59.1
2019-03-19T13:32:49.215Z,59.5
2019-03-19T13:33:49.123Z,60
2019-03-19T13:34:49.016Z,59.5
2019-03-19T13:35:48.924Z,59.1
2019-03-19T13:36:48.821Z,57.9
2019-03-19T13:37:48.726Z,57.4
2019-03-19T13:38:48.657Z,57.9
2019-03-19T13:39:49.051Z,57.9
2019-03-19T13:40:48.962Z,57.3
2019-03-19T13:41:48.873Z,57.2
2019-03-19T13:42:48.867Z,56.4
2019-03-19T13:43:48.799Z,56.2
2019-03-19T13:44:48.715Z,55.7
2019-03-19T13:45:48.633Z,55.1
2019-03-19T13:46:48.554Z,55.3
2019-03-19T13:48:48.187Z,54.9
2019-03-19T13:49:48.520Z,54.5
2019-03-19T13:50:48.532Z,54.9
2019-03-19T13:51:48.440Z,54
2019-03-19T13:52:48.333Z,54.1
2019-03-19T13:53:48.239Z,54.9
2019-03-19T13:54:48.148Z,54.9
2019-03-19T13:55:48.035Z,54.4
2019-03-19T13:56:47.984Z,54.4
2019-03-19T13:57:47.886Z,54.2
2019-03-19T13:58:47.841Z,54.7
2019-03-19T13:59:48.196Z,55
2019-03-19T14:00:56.527Z,56
2019-03-19T14:01:56.465Z,55.3
2019-03-19T14:02:58.959Z,55.4
2019-03-19T14:03:59.292Z,55.8
2019-03-19T14:04:59.180Z,55.2
2019-03-19T14:05:59.096Z,56.2
2019-03-19T14:06:59.010Z,55.7
2019-03-19T14:07:58.889Z,56.9
2019-03-19T14:08:58.786Z,55.7
2019-03-19T14:09:59.114Z,55.2
2019-03-19T14:10:59.008Z,55.3
2019-03-19T14:11:58.902Z,56.1
2019-03-19T14:12:58.816Z,55.8
2019-03-19T14:14:01.310Z,56.4
2019-03-19T14:15:01.230Z,54.2
2019-03-19T14:16:01.172Z,53.7
2019-03-19T14:17:01.070Z,54.1
2019-03-19T14:18:00.995Z,54.7
2019-03-19T14:19:00.894Z,54.1
2019-03-19T14:20:01.239Z,53.7
2019-03-19T14:21:01.142Z,54.6
2019-03-19T14:22:01.065Z,54.4
2019-03-19T14:23:01.022Z,54
2019-03-19T14:24:00.975Z,53.9
2019-03-19T14:25:01.015Z,54.3
2019-03-19T14:26:00.914Z,53.4
2019-03-19T14:27:00.794Z,54.4
2019-03-19T14:28:00.695Z,56.4
2019-03-19T14:29:00.621Z,58.1
2019-03-19T14:30:00.986Z,59.8
2019-03-19T14:31:09.840Z,60.2
2019-03-19T14:32:09.756Z,60
2019-03-19T14:33:09.660Z,59.8
2019-03-19T14:34:09.564Z,59.3
2019-03-19T14:35:09.504Z,59.6
2019-03-19T14:36:11.066Z,60.9
2019-03-19T14:37:13.152Z,60.7
2019-03-19T14:38:13.050Z,61.3
2019-03-19T14:39:12.958Z,59.2
2019-03-19T14:40:13.294Z,59.4
2019-03-19T14:41:13.192Z,58.1
2019-03-19T14:42:13.095Z,57.5
2019-03-19T14:43:13.017Z,58.4
2019-03-19T14:44:12.954Z,59.5
2019-03-19T14:45:12.872Z,59.4
2019-03-19T14:46:12.779Z,60.3
2019-03-19T14:50:19.914Z,59.1
2019-03-19T14:51:19.832Z,59.7
2019-03-19T14:52:19.815Z,59.8
2019-03-19T14:53:19.714Z,58.9
2019-03-19T14:54:19.654Z,59.2
2019-03-19T14:55:19.648Z,59.6
2019-03-19T14:56:19.547Z,59.4
2019-03-19T14:57:19.449Z,59.6
2019-03-19T14:58:19.359Z,59.4
2019-03-19T14:59:19.261Z,59.6
2019-03-19T15:00:19.620Z,58.3
2019-03-19T15:01:20.530Z,58.7
2019-03-19T15:02:20.432Z,59.1
2019-03-19T15:03:20.334Z,59.5
2019-03-19T15:04:20.243Z,59.2
2019-03-19T15:05:20.190Z,59.3
2019-03-19T15:06:20.096Z,59
2019-03-19T15:07:20.010Z,59.2
2019-03-19T15:08:19.898Z,58.9
2019-03-19T15:09:19.821Z,59.3
2019-03-19T15:10:20.156Z,59.5
2019-03-19T15:11:20.138Z,58.9
2019-03-19T15:12:20.346Z,59.2
2019-03-19T15:13:20.246Z,59
2019-03-19T15:14:20.149Z,59
2019-03-19T15:15:20.076Z,59.3
2019-03-19T15:16:20.015Z,59.5
2019-03-19T15:17:19.938Z,59.9
2019-03-19T15:18:19.829Z,59.6
2019-03-19T15:19:19.736Z,58.7
2019-03-19T15:20:20.064Z,59.3
2019-03-19T15:21:19.970Z,58.1
2019-03-19T15:22:19.878Z,57.4
2019-03-19T15:23:19.781Z,57.4
2019-03-19T15:24:19.703Z,57.2
2019-03-19T15:25:19.633Z,57.4
2019-03-19T15:26:19.551Z,57.9
2019-03-19T15:27:19.466Z,59
2019-03-19T15:28:19.364Z,59.3
2019-03-19T15:29:19.273Z,58.6
2019-03-19T15:30:19.628Z,58.3
2019-03-19T15:31:30.737Z,57.8
2019-03-19T15:32:30.731Z,57.9
2019-03-19T15:33:30.639Z,57.8
2019-03-19T15:34:30.537Z,58.1
2019-03-19T15:35:30.445Z,58.5
2019-03-19T15:36:30.342Z,58
2019-03-19T15:37:30.303Z,57.4
2019-03-19T15:38:30.199Z,57.6
2019-03-19T15:39:30.095Z,58.4
2019-03-19T15:40:30.431Z,59
2019-03-19T15:41:30.361Z,59.7
2019-03-19T15:42:30.604Z,60.2
2019-03-19T15:43:30.531Z,60.5
2019-03-19T15:44:30.425Z,60.9
2019-03-19T15:45:30.326Z,61.2
2019-03-19T15:46:30.226Z,61.5
2019-03-19T15:47:30.111Z,61.7
2019-03-19T15:48:30.021Z,61.8
2019-03-19T15:49:39.160Z,62.1
2019-03-19T15:50:39.563Z,62.5
2019-03-19T15:51:39.497Z,62.1
2019-03-19T15:52:39.412Z,62.3
2019-03-19T15:53:39.386Z,62.6
2019-03-19T15:54:39.277Z,62.7
2019-03-19T15:55:39.200Z,63.2
2019-03-19T15:56:39.085Z,63.5
2019-03-19T15:57:38.987Z,63.5